Time;durP1;ratioP1;P1;durP2;ratioP2;P2;SDS_P1;SDS_P2;PMS_P1;PMS_P2;Temp;Humidity;BMP_temperature;BMP_pressure;BME280_temperature;BME280_humidity;BME280_pressure;Samples;Min_cycle;Max_cycle;Signal;HPM_P1;HPM_P2
2022/05/27 00:00:28;;;;;;;2.47;1.50;;;;;;;;;;5031775;28;20192;-85
2022/05/27 00:03:32;;;;;;;4.13;1.77;;;;;;;;;;5020680;28;20563;-85
2022/05/27 00:06:36;;;;;;;1.77;1.60;;;;;;;;;;5004102;28;20189;-84
2022/05/27 00:09:40;;;;;;;2.30;1.60;;;;;;;;;;4992884;28;20177;-84
2022/05/27 00:12:44;;;;;;;2.70;1.40;;;;;;;;;;4998380;28;20560;-84
2022/05/27 00:15:49;;;;;;;2.50;1.67;;;;;;;;;;5045807;28;20524;-85
2022/05/27 00:18:54;;;;;;;2.17;1.60;;;;;;;;;;5038581;28;20203;-84
2022/05/27 00:21:58;;;;;;;1.70;1.40;;;;;;;;;;5016564;28;20193;-84
2022/05/27 00:25:03;;;;;;;2.03;1.30;;;;;;;;;;5010351;28;20201;-84
2022/05/27 00:28:08;;;;;;;2.87;1.90;;;;;;;;;;5012510;28;20201;-85
2022/05/27 00:31:13;;;;;;;3.57;1.70;;;;;;;;;;4998919;28;20193;-84
2022/05/27 00:34:17;;;;;;;2.43;1.87;;;;;;;;;;5009780;28;20208;-84
2022/05/27 00:37:21;;;;;;;3.00;1.80;;;;;;;;;;4987604;28;20173;-84
2022/05/27 00:40:32;;;;;;;4.20;1.87;;;;;;;;;;4987441;28;20205;-84
2022/05/27 00:43:38;;;;;;;1.83;1.47;;;;;;;;;;5047247;28;20231;-84
2022/05/27 00:46:44;;;;;;;2.03;1.57;;;;;;;;;;5027078;28;20176;-84
2022/05/27 00:49:59;;;;;;;3.20;1.73;;;;;;;;;;5026290;28;20180;-84
2022/05/27 00:53:06;;;;;;;2.53;1.60;;;;;;;;;;5026278;28;20224;-85
2022/05/27 00:56:14;;;;;;;1.87;1.43;;;;;;;;;;5038116;28;20199;-84
2022/05/27 00:59:23;;;;;;;1.70;1.60;;;;;;;;;;5025864;28;20559;-83
2022/05/27 01:02:28;;;;;;;1.87;1.60;;;;;;;;;;5047354;28;20216;-84
2022/05/27 01:05:32;;;;;;;2.73;1.60;;;;;;;;;;5009963;28;20201;-84
2022/05/27 01:08:36;;;;;;;4.97;1.33;;;;;;;;;;5008187;28;20185;-84
2022/05/27 01:11:43;;;;;;;5.90;1.70;;;;;;;;;;5019157;28;20173;-83
2022/05/27 01:15:02;;;;;;;3.73;1.67;;;;;;;;;;5007928;28;20231;-84
2022/05/27 01:18:12;;;;;;;3.33;1.80;;;;;;;;;;4996986;28;20186;-83
2022/05/27 01:21:34;;;;;;;2.13;1.70;;;;;;;;;;5016475;28;20193;-83
2022/05/27 01:25:13;;;;;;;4.13;2.00;;;;;;;;;;5027560;28;20177;-83
2022/05/27 01:28:35;;;;;;;2.80;1.80;;;;;;;;;;5023779;28;20177;-83
2022/05/27 01:31:45;;;;;;;2.93;2.00;;;;;;;;;;5012855;28;20185;-84
2022/05/27 01:35:01;;;;;;;1.70;1.60;;;;;;;;;;5012912;28;20180;-83
2022/05/27 01:38:19;;;;;;;5.33;1.87;;;;;;;;;;5024389;28;20178;-84
2022/05/27 01:41:32;;;;;;;3.03;2.00;;;;;;;;;;5023891;28;20173;-84
2022/05/27 01:44:59;;;;;;;3.00;2.37;;;;;;;;;;5013092;28;20185;-84
2022/05/27 01:48:23;;;;;;;2.77;2.00;;;;;;;;;;5001691;28;20185;-83
2022/05/27 01:51:34;;;;;;;5.70;2.30;;;;;;;;;;5024008;28;20174;-84
2022/05/27 01:54:51;;;;;;;4.20;1.87;;;;;;;;;;5019562;28;20191;-83
2022/05/27 01:58:00;;;;;;;2.93;2.00;;;;;;;;;;5032337;28;20180;-83
2022/05/27 02:01:09;;;;;;;2.63;1.93;;;;;;;;;;5020490;28;20544;-83
2022/05/27 02:04:33;;;;;;;2.60;2.23;;;;;;;;;;5031794;28;20659;-83
2022/05/27 02:07:44;;;;;;;5.47;2.07;;;;;;;;;;5054974;28;20524;-83
2022/05/27 02:11:06;;;;;;;2.50;1.90;;;;;;;;;;5054774;28;20192;-83
2022/05/27 02:14:43;;;;;;;4.50;1.67;;;;;;;;;;5021340;28;20176;-84
2022/05/27 02:17:52;;;;;;;2.17;1.97;;;;;;;;;;5020871;28;20521;-83
2022/05/27 02:21:03;;;;;;;2.53;1.80;;;;;;;;;;5020875;28;20552;-83
2022/05/27 02:24:18;;;;;;;3.03;1.80;;;;;;;;;;5032406;28;20180;-84
2022/05/27 02:27:27;;;;;;;3.10;1.90;;;;;;;;;;5043161;28;20184;-83
2022/05/27 02:30:35;;;;;;;4.40;2.13;;;;;;;;;;5031996;28;20184;-83
2022/05/27 02:37:29;;;;;;;5.10;2.00;;;;;;;;;;5055487;28;20180;-84
2022/05/27 02:40:43;;;;;;;2.70;1.90;;;;;;;;;;5031490;28;20208;-83
2022/05/27 02:44:23;;;;;;;3.13;1.87;;;;;;;;;;5031978;28;20558;-84
2022/05/27 02:48:03;;;;;;;4.43;2.30;;;;;;;;;;5020349;28;20200;-85
2022/05/27 02:51:30;;;;;;;2.97;2.00;;;;;;;;;;5022577;28;20656;-83
2022/05/27 02:54:52;;;;;;;2.57;2.00;;;;;;;;;;5012374;28;20177;-83
2022/05/27 02:58:02;;;;;;;2.70;2.20;;;;;;;;;;5024034;28;20186;-83
2022/05/27 03:01:07;;;;;;;2.53;1.90;;;;;;;;;;5023366;28;20545;-84
2022/05/27 03:04:12;;;;;;;2.57;1.80;;;;;;;;;;5002315;28;20636;-83
2022/05/27 03:07:52;;;;;;;3.07;1.63;;;;;;;;;;5031802;28;20180;-83
2022/05/27 03:11:00;;;;;;;4.30;2.00;;;;;;;;;;5031552;28;20184;-83
2022/05/27 03:14:10;;;;;;;3.63;1.90;;;;;;;;;;5032071;28;20232;-84
2022/05/27 03:17:29;;;;;;;3.57;1.70;;;;;;;;;;5031351;28;20188;-84
2022/05/27 03:20:48;;;;;;;2.87;2.10;;;;;;;;;;4991900;28;20213;-83
2022/05/27 03:24:19;;;;;;;3.17;1.90;;;;;;;;;;5003509;28;20549;-83
2022/05/27 03:27:33;;;;;;;3.27;1.87;;;;;;;;;;4992118;28;20182;-83
2022/05/27 03:31:14;;;;;;;3.97;1.93;;;;;;;;;;5020362;28;20204;-84
2022/05/27 03:34:33;;;;;;;1.87;1.70;;;;;;;;;;5029432;28;20192;-83
2022/05/27 03:38:10;;;;;;;4.80;2.20;;;;;;;;;;5020078;28;20200;-83
2022/05/27 03:41:28;;;;;;;3.50;1.77;;;;;;;;;;5020057;28;20548;-83
2022/05/27 03:44:33;;;;;;;3.20;1.87;;;;;;;;;;5019533;28;20180;-84
2022/05/27 03:47:39;;;;;;;3.10;1.80;;;;;;;;;;5030589;28;20188;-83
2022/05/27 03:50:46;;;;;;;3.07;1.90;;;;;;;;;;5041207;28;20176;-83
2022/05/27 03:54:05;;;;;;;2.87;2.00;;;;;;;;;;5030874;28;20215;-84
2022/05/27 03:57:10;;;;;;;4.70;1.67;;;;;;;;;;5030870;28;20639;-83
2022/05/27 04:00:15;;;;;;;3.83;1.70;;;;;;;;;;5013896;28;20212;-84
2022/05/27 04:03:19;;;;;;;2.10;1.73;;;;;;;;;;5022362;28;20217;-83
2022/05/27 04:06:24;;;;;;;2.17;1.73;;;;;;;;;;5002017;28;20545;-84
2022/05/27 04:09:28;;;;;;;3.87;2.00;;;;;;;;;;4979868;28;20182;-84
2022/05/27 04:12:32;;;;;;;3.67;1.63;;;;;;;;;;5013176;28;20217;-83
2022/05/27 04:15:36;;;;;;;5.20;1.70;;;;;;;;;;4991023;28;20190;-84
2022/05/27 04:18:41;;;;;;;2.53;1.70;;;;;;;;;;5006836;28;20184;-83
2022/05/27 04:21:45;;;;;;;3.57;1.93;;;;;;;;;;5041468;28;20176;-83
2022/05/27 04:24:49;;;;;;;2.37;1.70;;;;;;;;;;5019277;28;20172;-84
2022/05/27 04:27:53;;;;;;;1.67;1.50;;;;;;;;;;5006816;28;20675;-83
2022/05/27 04:30:57;;;;;;;3.37;1.50;;;;;;;;;;4979607;28;20205;-84
2022/05/27 04:34:06;;;;;;;4.57;1.87;;;;;;;;;;4979140;28;20213;-84
2022/05/27 04:37:11;;;;;;;3.73;1.90;;;;;;;;;;4990346;28;20197;-84
2022/05/27 04:40:15;;;;;;;3.83;1.60;;;;;;;;;;4979023;28;20205;-84
2022/05/27 04:43:19;;;;;;;4.37;1.73;;;;;;;;;;4990398;28;20217;-83
2022/05/27 04:46:23;;;;;;;1.63;1.40;;;;;;;;;;4979640;28;20174;-84
2022/05/27 04:52:50;;;;;;;3.60;2.00;;;;;;;;;;5001523;28;20221;-83
2022/05/27 04:55:54;;;;;;;2.13;1.60;;;;;;;;;;5001632;28;20178;-83
2022/05/27 04:58:58;;;;;;;1.97;1.67;;;;;;;;;;4978865;28;20185;-83
2022/05/27 05:02:04;;;;;;;2.07;1.47;;;;;;;;;;5013307;28;20225;-83
2022/05/27 05:05:09;;;;;;;3.03;1.80;;;;;;;;;;5004836;28;20178;-83
2022/05/27 05:08:22;;;;;;;2.30;1.50;;;;;;;;;;4982556;28;20174;-83
2022/05/27 05:11:26;;;;;;;3.60;1.80;;;;;;;;;;5004916;28;20198;-83
2022/05/27 05:14:30;;;;;;;2.50;1.73;;;;;;;;;;5037534;23;20231;-87
2022/05/27 05:17:34;;;;;;;2.57;1.73;;;;;;;;;;5044271;28;20191;-88
2022/05/27 05:20:39;;;;;;;2.57;1.50;;;;;;;;;;5013055;28;20217;-88
2022/05/27 05:23:43;;;;;;;3.67;1.80;;;;;;;;;;5001779;28;20698;-88
2022/05/27 05:26:48;;;;;;;3.20;1.90;;;;;;;;;;5013417;28;20197;-88
2022/05/27 05:29:53;;;;;;;1.97;1.63;;;;;;;;;;5012705;28;20647;-88
2022/05/27 05:32:57;;;;;;;2.43;1.83;;;;;;;;;;5012619;28;20220;-88
2022/05/27 05:36:02;;;;;;;4.43;1.90;;;;;;;;;;5019830;28;20192;-88
2022/05/27 05:39:06;;;;;;;2.23;1.40;;;;;;;;;;5020345;28;20192;-87
2022/05/27 05:42:11;;;;;;;3.90;1.60;;;;;;;;;;5012811;28;20177;-88
2022/05/27 05:45:17;;;;;;;5.73;1.60;;;;;;;;;;5023907;28;20192;-87
2022/05/27 05:48:21;;;;;;;2.40;1.47;;;;;;;;;;5032147;28;20642;-88
2022/05/27 05:51:25;;;;;;;4.13;1.70;;;;;;;;;;5013141;28;20185;-88
2022/05/27 05:54:30;;;;;;;4.03;1.80;;;;;;;;;;5012144;28;20260;-87
2022/05/27 05:57:39;;;;;;;2.57;1.50;;;;;;;;;;5001302;28;20180;-88
2022/05/27 06:00:43;;;;;;;2.87;1.30;;;;;;;;;;5042855;28;20204;-88
2022/05/27 06:03:47;;;;;;;2.83;1.50;;;;;;;;;;5025440;28;20212;-88
2022/05/27 06:06:52;;;;;;;2.53;1.43;;;;;;;;;;5008894;28;20184;-87
2022/05/27 06:09:56;;;;;;;3.03;1.60;;;;;;;;;;5037553;28;20188;-88
2022/05/27 06:13:00;;;;;;;2.13;1.50;;;;;;;;;;5018926;28;20217;-87
2022/05/27 06:16:05;;;;;;;1.77;1.30;;;;;;;;;;5021845;28;20181;-88
2022/05/27 06:19:09;;;;;;;2.87;1.43;;;;;;;;;;5041362;28;20203;-88
2022/05/27 06:22:13;;;;;;;2.33;1.40;;;;;;;;;;5034200;28;20216;-88
2022/05/27 06:25:18;;;;;;;4.40;1.50;;;;;;;;;;5031856;28;20180;-88
2022/05/27 06:35:25;;;;;;;3.63;1.40;;;;;;;;;;4995351;28;20202;-89
2022/05/27 06:38:29;;;;;;;6.00;1.20;;;;;;;;;;5000379;28;20197;-90
2022/05/27 06:41:34;;;;;;;1.77;1.20;;;;;;;;;;5011859;28;20209;-90
2022/05/27 06:44:38;;;;;;;5.23;1.53;;;;;;;;;;5024051;28;20683;-90
2022/05/27 06:47:42;;;;;;;2.60;1.30;;;;;;;;;;5005045;28;20201;-90
2022/05/27 06:50:46;;;;;;;2.60;1.40;;;;;;;;;;5014109;28;20183;-90
2022/05/27 06:53:50;;;;;;;2.80;1.40;;;;;;;;;;5019559;28;20219;-89
2022/05/27 06:56:54;;;;;;;1.90;1.00;;;;;;;;;;5022815;28;20185;-90
2022/05/27 07:00:00;;;;;;;3.20;1.47;;;;;;;;;;5004280;28;20201;-89
2022/05/27 07:03:05;;;;;;;2.77;1.20;;;;;;;;;;5011599;28;20220;-88
2022/05/27 07:06:11;;;;;;;3.90;1.33;;;;;;;;;;5022287;28;20203;-88
2022/05/27 07:09:19;;;;;;;2.40;1.30;;;;;;;;;;5019292;28;20195;-90
2022/05/27 07:12:23;;;;;;;2.53;1.50;;;;;;;;;;5041677;28;20173;-89
2022/05/27 07:15:31;;;;;;;4.17;1.40;;;;;;;;;;5011923;28;20185;-89
2022/05/27 07:18:36;;;;;;;1.83;1.10;;;;;;;;;;5012368;28;20196;-89
2022/05/27 07:21:43;;;;;;;3.33;1.40;;;;;;;;;;5018522;28;20220;-88
2022/05/27 07:24:47;;;;;;;2.80;1.23;;;;;;;;;;5013679;28;20216;-88
2022/05/27 07:27:52;;;;;;;3.17;1.50;;;;;;;;;;5037245;28;20196;-89
2022/05/27 07:31:01;;;;;;;3.47;1.30;;;;;;;;;;5028387;28;20180;-84
2022/05/27 07:34:06;;;;;;;3.37;1.20;;;;;;;;;;5010934;28;20588;-84
2022/05/27 07:37:10;;;;;;;3.70;1.20;;;;;;;;;;5018549;28;20193;-84
2022/05/27 07:40:15;;;;;;;4.43;1.30;;;;;;;;;;5017524;28;20193;-85
2022/05/27 07:43:20;;;;;;;2.73;1.33;;;;;;;;;;5010477;28;20224;-84
2022/05/27 07:46:23;;;;;;;3.53;1.50;;;;;;;;;;5011316;28;20639;-85
2022/05/27 07:49:28;;;;;;;3.63;1.33;;;;;;;;;;5023394;28;20197;-86
2022/05/27 07:52:34;;;;;;;3.97;1.40;;;;;;;;;;5027974;28;20181;-85
2022/05/27 07:55:38;;;;;;;3.00;1.20;;;;;;;;;;5023575;28;20185;-85
2022/05/27 07:58:42;;;;;;;2.33;1.20;;;;;;;;;;5031940;28;20196;-87
2022/05/27 08:01:48;;;;;;;4.47;1.40;;;;;;;;;;5019721;28;20229;-87
2022/05/27 08:04:55;;;;;;;2.23;1.30;;;;;;;;;;5021010;28;20195;-85
2022/05/27 08:08:00;;;;;;;5.83;1.57;;;;;;;;;;5030350;28;20185;-86
2022/05/27 08:11:06;;;;;;;3.23;1.10;;;;;;;;;;5017878;28;20192;-86
2022/05/27 08:14:10;;;;;;;2.90;1.20;;;;;;;;;;5023029;28;20233;-86
2022/05/27 08:17:15;;;;;;;2.33;1.20;;;;;;;;;;5010366;28;20186;-85
2022/05/27 08:20:22;;;;;;;7.83;1.23;;;;;;;;;;5010223;28;20179;-86
2022/05/27 08:23:26;;;;;;;3.50;0.90;;;;;;;;;;5009937;28;20216;-87
2022/05/27 08:26:31;;;;;;;4.27;1.20;;;;;;;;;;5009029;28;20197;-85
2022/05/27 08:29:35;;;;;;;2.90;1.10;;;;;;;;;;5023758;28;20202;-86
2022/05/27 08:32:39;;;;;;;4.57;1.50;;;;;;;;;;5009725;28;20189;-86
2022/05/27 08:39:07;;;;;;;2.33;1.17;;;;;;;;;;5048227;28;20650;-85
2022/05/27 08:42:46;;;;;;;3.73;1.50;;;;;;;;;;5013265;28;20224;-86
2022/05/27 08:46:05;;;;;;;2.43;1.27;;;;;;;;;;5025165;28;20193;-85
2022/05/27 08:49:17;;;;;;;3.07;1.50;;;;;;;;;;5013916;28;20535;-86
2022/05/27 08:52:27;;;;;;;3.60;1.40;;;;;;;;;;5013482;28;20637;-86
2022/05/27 08:59:27;;;;;;;2.90;1.37;;;;;;;;;;5013543;28;20181;-85
2022/05/27 09:02:39;;;;;;;3.90;1.40;;;;;;;;;;5036572;28;20206;-86
2022/05/27 09:06:04;;;;;;;3.83;1.57;;;;;;;;;;5013472;28;20181;-86
2022/05/27 09:09:20;;;;;;;2.07;1.30;;;;;;;;;;5013539;28;20182;-85
2022/05/27 09:12:36;;;;;;;3.53;1.30;;;;;;;;;;5024664;28;20510;-85
2022/05/27 09:16:00;;;;;;;5.47;1.50;;;;;;;;;;5013190;28;20189;-86
2022/05/27 09:19:23;;;;;;;3.50;1.57;;;;;;;;;;5024427;28;20186;-86
2022/05/27 09:22:49;;;;;;;4.93;1.20;;;;;;;;;;5012798;28;20211;-86
2022/05/27 09:26:08;;;;;;;4.03;1.30;;;;;;;;;;5013073;28;20187;-85
2022/05/27 09:29:58;;;;;;;4.50;1.50;;;;;;;;;;5013138;28;20515;-86
2022/05/27 09:33:05;;;;;;;1.90;1.17;;;;;;;;;;5024518;28;20211;-86
2022/05/27 09:36:18;;;;;;;2.63;1.33;;;;;;;;;;5024181;28;20631;-85
2022/05/27 09:39:24;;;;;;;5.37;1.20;;;;;;;;;;5024068;28;20640;-86
2022/05/27 09:42:32;;;;;;;3.13;1.20;;;;;;;;;;5012640;28;20206;-87
2022/05/27 09:45:36;;;;;;;2.87;1.20;;;;;;;;;;5024111;28;20203;-86
2022/05/27 09:48:41;;;;;;;1.83;0.97;;;;;;;;;;5011816;28;20182;-86
2022/05/27 09:51:45;;;;;;;8.53;1.17;;;;;;;;;;5012454;28;20179;-86
2022/05/27 09:54:54;;;;;;;7.65;1.17;;;;;;;;;;5023734;28;20216;-85
2022/05/27 09:58:01;;;;;;;2.13;1.02;;;;;;;;;;5012194;28;20665;-85
2022/05/27 10:01:28;;;;;;;4.68;1.27;;;;;;;;;;5023419;28;20181;-86
2022/05/27 10:04:32;;;;;;;7.38;1.50;;;;;;;;;;5023549;28;20225;-86
2022/05/27 10:07:40;;;;;;;2.63;1.50;;;;;;;;;;5012137;28;20182;-86
2022/05/27 10:10:44;;;;;;;3.83;1.48;;;;;;;;;;5012251;28;20188;-86
2022/05/27 10:14:15;;;;;;;2.97;1.20;;;;;;;;;;5011996;28;20213;-86
2022/05/27 10:17:31;;;;;;;2.35;1.40;;;;;;;;;;5011984;28;20184;-86
2022/05/27 10:20:36;;;;;;;3.88;1.30;;;;;;;;;;5012122;28;20521;-86
2022/05/27 10:23:43;;;;;;;1.67;1.15;;;;;;;;;;5012222;28;20223;-86
2022/05/27 10:27:02;;;;;;;6.78;1.63;;;;;;;;;;5012216;28;20529;-86
2022/05/27 10:30:27;;;;;;;4.78;1.30;;;;;;;;;;5011825;28;20182;-86
2022/05/27 10:33:39;;;;;;;3.22;1.40;;;;;;;;;;5011593;28;20567;-86
2022/05/27 10:37:05;;;;;;;3.00;1.20;;;;;;;;;;5011581;28;20179;-85
2022/05/27 10:40:31;;;;;;;4.00;1.17;;;;;;;;;;5022812;28;20187;-86
2022/05/27 10:43:55;;;;;;;4.68;1.00;;;;;;;;;;5011448;28;20229;-86
2022/05/27 10:47:00;;;;;;;2.35;1.10;;;;;;;;;;5011711;28;20187;-86
2022/05/27 10:50:36;;;;;;;3.90;1.27;;;;;;;;;;5011461;28;20188;-86
2022/05/27 10:53:46;;;;;;;2.15;1.13;;;;;;;;;;5022662;28;20209;-86
2022/05/27 11:04:11;;;;;;;1.20;0.90;;;;;;;;;;5010947;28;20550;-85
2022/05/27 11:07:50;;;;;;;3.05;1.17;;;;;;;;;;5022262;28;20177;-86
2022/05/27 11:11:09;;;;;;;3.85;1.25;;;;;;;;;;5010869;28;20195;-86
2022/05/27 11:18:12;;;;;;;4.35;1.08;;;;;;;;;;5022609;28;20184;-84
2022/05/27 11:21:32;;;;;;;1.40;1.00;;;;;;;;;;5011304;28;20182;-84
2022/05/27 11:25:03;;;;;;;2.38;1.20;;;;;;;;;;5002861;28;20235;-84
2022/05/27 11:28:26;;;;;;;7.72;1.25;;;;;;;;;;4980784;28;20174;-83
2022/05/27 11:31:39;;;;;;;4.30;1.40;;;;;;;;;;5002490;28;20182;-83
2022/05/27 11:35:10;;;;;;;2.85;1.25;;;;;;;;;;5002273;28;20211;-84
2022/05/27 11:38:34;;;;;;;4.97;1.23;;;;;;;;;;5002304;28;20192;-84
2022/05/27 11:41:41;;;;;;;4.40;1.00;;;;;;;;;;5002436;28;20186;-84
2022/05/27 11:45:03;;;;;;;1.92;1.05;;;;;;;;;;5002302;28;20223;-84
2022/05/27 11:48:33;;;;;;;1.30;0.93;;;;;;;;;;5014549;28;20281;-84
2022/05/27 11:52:00;;;;;;;3.55;0.88;;;;;;;;;;4979910;28;20187;-84
2022/05/27 11:55:29;;;;;;;3.22;0.98;;;;;;;;;;4991445;28;20225;-83
2022/05/27 11:58:46;;;;;;;4.68;0.88;;;;;;;;;;4991082;28;20625;-84
2022/05/27 12:01:59;;;;;;;3.85;1.08;;;;;;;;;;4980195;28;20648;-84
2022/05/27 12:05:14;;;;;;;1.67;1.27;;;;;;;;;;4991260;28;20219;-85
2022/05/27 12:08:32;;;;;;;1.75;1.00;;;;;;;;;;4991198;28;20542;-84
2022/05/27 12:11:50;;;;;;;6.50;1.02;;;;;;;;;;4980010;28;20189;-84
2022/05/27 12:15:43;;;;;;;3.13;1.02;;;;;;;;;;4990966;28;20221;-84
2022/05/27 12:19:01;;;;;;;2.80;1.13;;;;;;;;;;4996965;28;20184;-84
2022/05/27 12:22:14;;;;;;;3.92;1.17;;;;;;;;;;5001821;28;20214;-84
2022/05/27 12:25:29;;;;;;;1.80;0.80;;;;;;;;;;4990982;28;20221;-85
2022/05/27 12:28:39;;;;;;;3.63;1.00;;;;;;;;;;5014368;28;20194;-84
2022/05/27 12:31:43;;;;;;;1.45;0.98;;;;;;;;;;4991299;28;20631;-84
2022/05/27 12:34:48;;;;;;;2.08;1.10;;;;;;;;;;4979612;28;20219;-84
2022/05/27 12:38:04;;;;;;;3.17;1.10;;;;;;;;;;5002263;28;20183;-85
2022/05/27 12:41:09;;;;;;;2.85;1.05;;;;;;;;;;4979639;28;20187;-84
2022/05/27 12:44:19;;;;;;;1.77;1.00;;;;;;;;;;4979450;28;20693;-84
2022/05/27 12:47:30;;;;;;;1.85;1.05;;;;;;;;;;4990920;28;20189;-85
2022/05/27 12:50:37;;;;;;;2.38;0.93;;;;;;;;;;5014385;28;20189;-84
2022/05/27 12:53:51;;;;;;;3.45;1.20;;;;;;;;;;5001743;28;20691;-84
2022/05/27 13:03:48;;;;;;;3.33;1.00;;;;;;;;;;5014073;28;20232;-84
2022/05/27 13:07:04;;;;;;;4.43;1.30;;;;;;;;;;4979234;28;20635;-84
2022/05/27 13:10:17;;;;;;;1.20;1.10;;;;;;;;;;4990526;28;20185;-85
2022/05/27 13:13:28;;;;;;;4.10;1.33;;;;;;;;;;5001367;28;20677;-84
2022/05/27 13:17:01;;;;;;;5.30;1.33;;;;;;;;;;4979182;28;20207;-84
2022/05/27 13:20:22;;;;;;;2.22;0.93;;;;;;;;;;5013046;28;20174;-84
2022/05/27 13:23:28;;;;;;;4.07;1.17;;;;;;;;;;4991390;28;20566;-84
2022/05/27 13:26:47;;;;;;;3.90;1.17;;;;;;;;;;4982599;28;20183;-84
2022/05/27 13:29:54;;;;;;;1.35;0.98;;;;;;;;;;4993817;28;20191;-84
2022/05/27 13:32:58;;;;;;;3.90;1.73;;;;;;;;;;5005016;28;20195;-84
2022/05/27 13:36:16;;;;;;;2.50;1.20;;;;;;;;;;4993769;28;20189;-84
2022/05/27 13:39:25;;;;;;;3.77;1.47;;;;;;;;;;5004746;28;20187;-83
2022/05/27 13:42:37;;;;;;;2.77;1.20;;;;;;;;;;4993237;28;20205;-84
2022/05/27 13:45:56;;;;;;;1.67;1.03;;;;;;;;;;4982214;28;20185;-84
2022/05/27 13:49:07;;;;;;;2.17;1.13;;;;;;;;;;5004514;28;20181;-84
2022/05/27 13:52:24;;;;;;;3.67;0.98;;;;;;;;;;4992956;28;20542;-84
2022/05/27 13:55:29;;;;;;;3.17;1.20;;;;;;;;;;5004357;28;20183;-84
2022/05/27 13:58:36;;;;;;;2.25;1.10;;;;;;;;;;5016668;28;20187;-84
2022/05/27 14:01:52;;;;;;;3.17;1.00;;;;;;;;;;4992880;28;20526;-84
2022/05/27 14:05:03;;;;;;;1.45;1.02;;;;;;;;;;5015994;28;20547;-84
2022/05/27 14:08:09;;;;;;;2.85;1.13;;;;;;;;;;4993087;28;20184;-84
2022/05/27 14:11:21;;;;;;;2.35;1.10;;;;;;;;;;4993158;28;20633;-84
2022/05/27 14:14:44;;;;;;;1.45;1.00;;;;;;;;;;4992711;28;20230;-84
2022/05/27 14:17:49;;;;;;;4.53;0.90;;;;;;;;;;4982091;28;20190;-84
2022/05/27 14:24:36;;;;;;;1.63;0.90;;;;;;;;;;4965272;28;20240;-84
2022/05/27 14:27:47;;;;;;;5.18;0.70;;;;;;;;;;5003670;28;20199;-84
2022/05/27 14:30:57;;;;;;;3.08;1.00;;;;;;;;;;5015837;28;20185;-84
2022/05/27 14:34:03;;;;;;;1.08;0.77;;;;;;;;;;5003074;28;20214;-84
2022/05/27 14:37:27;;;;;;;2.30;0.90;;;;;;;;;;4992591;28;20188;-84
2022/05/27 14:40:45;;;;;;;2.25;1.25;;;;;;;;;;4992364;28;20190;-84
2022/05/27 14:43:53;;;;;;;3.25;1.00;;;;;;;;;;5003524;28;20690;-84
2022/05/27 14:47:07;;;;;;;3.42;1.00;;;;;;;;;;4992325;28;20183;-84
2022/05/27 14:50:11;;;;;;;1.65;1.00;;;;;;;;;;4981190;28;20189;-84
2022/05/27 14:53:17;;;;;;;2.42;1.05;;;;;;;;;;4992267;28;20180;-84
2022/05/27 14:56:26;;;;;;;2.20;1.10;;;;;;;;;;4991972;28;20174;-84
2022/05/27 14:59:35;;;;;;;1.87;1.00;;;;;;;;;;4992218;28;20185;-84
2022/05/27 15:02:39;;;;;;;3.07;1.00;;;;;;;;;;4992089;28;20194;-84
2022/05/27 15:05:43;;;;;;;1.87;0.93;;;;;;;;;;5003454;28;20183;-84
2022/05/27 15:09:29;;;;;;;3.17;1.30;;;;;;;;;;5014708;28;20538;-83
2022/05/27 15:12:34;;;;;;;2.07;1.20;;;;;;;;;;4980924;28;20182;-84
2022/05/27 15:15:44;;;;;;;3.73;1.27;;;;;;;;;;5003288;28;20173;-84
2022/05/27 15:18:52;;;;;;;2.10;1.17;;;;;;;;;;5003009;28;20183;-84
2022/05/27 15:22:02;;;;;;;2.47;1.00;;;;;;;;;;5002903;28;20178;-84
2022/05/27 15:25:11;;;;;;;1.80;1.20;;;;;;;;;;4980314;28;20210;-84
2022/05/27 15:35:11;;;;;;;1.67;1.20;;;;;;;;;;5013623;28;20221;-83
2022/05/27 15:38:18;;;;;;;6.10;1.30;;;;;;;;;;4980587;28;20178;-84
2022/05/27 15:41:22;;;;;;;3.30;1.43;;;;;;;;;;4980635;28;20342;-84
2022/05/27 15:44:25;;;;;;;3.10;1.53;;;;;;;;;;5002682;28;20229;-84
2022/05/27 15:47:30;;;;;;;4.87;1.50;;;;;;;;;;5001803;28;20625;-83
2022/05/27 15:50:35;;;;;;;1.67;1.40;;;;;;;;;;5002395;28;20207;-84
2022/05/27 15:53:40;;;;;;;3.20;1.43;;;;;;;;;;5002528;28;20205;-83
2022/05/27 15:56:44;;;;;;;3.50;1.70;;;;;;;;;;5002260;28;20196;-83
2022/05/27 15:59:48;;;;;;;1.40;1.30;;;;;;;;;;4991006;28;20185;-83
2022/05/27 16:02:52;;;;;;;1.77;1.30;;;;;;;;;;4991452;28;20185;-83
2022/05/27 16:06:00;;;;;;;5.20;1.30;;;;;;;;;;5002039;28;20177;-83
2022/05/27 16:09:05;;;;;;;3.20;1.20;;;;;;;;;;4991135;28;20178;-83
2022/05/27 16:12:09;;;;;;;2.17;1.30;;;;;;;;;;4980484;28;20185;-84
2022/05/27 16:15:14;;;;;;;4.10;1.30;;;;;;;;;;5001699;28;20213;-83
2022/05/27 16:18:19;;;;;;;2.50;1.20;;;;;;;;;;5001934;28;20197;-83
2022/05/27 16:21:23;;;;;;;6.63;1.50;;;;;;;;;;5013220;28;20193;-83
2022/05/27 16:24:28;;;;;;;2.47;1.33;;;;;;;;;;4990931;28;20225;-83
2022/05/27 16:27:34;;;;;;;2.53;1.40;;;;;;;;;;4979791;28;20201;-83
2022/05/27 16:30:45;;;;;;;2.53;1.40;;;;;;;;;;4980070;28;20182;-84
2022/05/27 16:33:50;;;;;;;5.33;1.47;;;;;;;;;;4979485;28;20217;-83
2022/05/27 16:36:54;;;;;;;3.87;1.30;;;;;;;;;;4979643;28;20182;-83
2022/05/27 16:39:59;;;;;;;1.57;1.07;;;;;;;;;;4990822;28;20185;-83
2022/05/27 16:43:03;;;;;;;1.57;1.03;;;;;;;;;;4990668;28;20529;-84
2022/05/27 16:46:09;;;;;;;2.90;1.30;;;;;;;;;;4990729;28;20182;-84
2022/05/27 16:49:15;;;;;;;1.90;1.00;;;;;;;;;;5001453;28;20201;-83
2022/05/27 16:52:19;;;;;;;3.43;1.00;;;;;;;;;;4990407;28;20521;-83
2022/05/27 16:55:24;;;;;;;3.83;1.20;;;;;;;;;;4990677;28;20178;-83
2022/05/27 16:58:28;;;;;;;3.20;1.03;;;;;;;;;;5004475;28;20652;-84
2022/05/27 17:01:33;;;;;;;1.70;1.17;;;;;;;;;;5005240;28;20200;-84
2022/05/27 17:04:38;;;;;;;1.33;1.20;;;;;;;;;;4994254;28;20225;-83
2022/05/27 17:07:43;;;;;;;3.97;0.93;;;;;;;;;;4982882;28;20185;-83
2022/05/27 17:10:47;;;;;;;2.80;1.10;;;;;;;;;;4994270;28;20181;-84
2022/05/27 17:13:51;;;;;;;1.10;1.00;;;;;;;;;;5021930;23;20216;-84
2022/05/27 17:16:55;;;;;;;4.27;1.30;;;;;;;;;;5033459;28;20176;-84
2022/05/27 17:19:59;;;;;;;0.93;0.87;;;;;;;;;;5033573;28;20180;-84
2022/05/27 17:23:04;;;;;;;2.37;1.10;;;;;;;;;;5033573;28;20184;-84
2022/05/27 17:26:09;;;;;;;2.53;1.30;;;;;;;;;;5013709;28;20177;-84
2022/05/27 17:29:13;;;;;;;2.17;1.20;;;;;;;;;;5036983;28;20181;-85
2022/05/27 17:32:17;;;;;;;6.03;1.30;;;;;;;;;;5013441;28;20184;-84
2022/05/27 17:35:22;;;;;;;2.37;1.10;;;;;;;;;;5013321;28;20208;-84
2022/05/27 17:38:26;;;;;;;1.93;1.20;;;;;;;;;;5024570;28;20184;-84
2022/05/27 17:41:30;;;;;;;4.13;1.00;;;;;;;;;;5013659;28;20177;-84
2022/05/27 17:44:34;;;;;;;2.10;1.07;;;;;;;;;;5013103;28;20228;-84
2022/05/27 17:51:20;;;;;;;4.30;1.10;;;;;;;;;;5035755;28;20189;-84
2022/05/27 17:54:25;;;;;;;1.20;1.10;;;;;;;;;;5024682;28;20216;-84
2022/05/27 17:57:29;;;;;;;3.90;1.20;;;;;;;;;;5024341;28;20540;-84
2022/05/27 18:00:34;;;;;;;2.03;1.30;;;;;;;;;;5024271;28;20643;-84
2022/05/27 18:03:37;;;;;;;5.07;1.40;;;;;;;;;;5001571;28;20181;-84
2022/05/27 18:06:42;;;;;;;3.07;1.20;;;;;;;;;;5035484;28;20181;-84
2022/05/27 18:09:46;;;;;;;1.70;1.40;;;;;;;;;;5023768;28;20536;-84
2022/05/27 18:12:50;;;;;;;1.83;1.03;;;;;;;;;;5001499;28;20197;-84
2022/05/27 18:15:54;;;;;;;1.67;1.10;;;;;;;;;;5023948;28;20220;-84
2022/05/27 18:18:58;;;;;;;2.73;1.40;;;;;;;;;;5001772;28;20181;-84
2022/05/27 18:22:03;;;;;;;3.43;1.50;;;;;;;;;;5036345;28;20181;-84
2022/05/27 18:25:07;;;;;;;1.50;1.40;;;;;;;;;;5023647;28;20564;-84
2022/05/27 18:28:12;;;;;;;1.80;1.30;;;;;;;;;;5024272;28;20181;-84
2022/05/27 18:31:17;;;;;;;1.23;1.13;;;;;;;;;;5024140;28;20639;-85
2022/05/27 18:34:21;;;;;;;2.33;1.20;;;;;;;;;;5012538;28;20216;-84
2022/05/27 18:37:25;;;;;;;2.07;1.10;;;;;;;;;;5012551;28;20185;-84
2022/05/27 18:40:30;;;;;;;2.17;1.37;;;;;;;;;;5012333;28;20544;-84
2022/05/27 18:43:34;;;;;;;2.20;1.50;;;;;;;;;;5012485;28;20185;-84
2022/05/27 18:46:39;;;;;;;2.53;1.10;;;;;;;;;;5023916;28;20635;-84
2022/05/27 18:49:43;;;;;;;2.33;1.57;;;;;;;;;;5012771;28;20181;-84
2022/05/27 18:52:47;;;;;;;2.77;1.30;;;;;;;;;;5012416;28;20180;-85
2022/05/27 18:55:51;;;;;;;2.20;1.13;;;;;;;;;;5012294;28;20209;-84
2022/05/27 18:58:56;;;;;;;1.40;1.17;;;;;;;;;;5012700;28;20189;-84
2022/05/27 19:02:01;;;;;;;2.40;1.37;;;;;;;;;;5023530;28;20643;-85
2022/05/27 19:05:06;;;;;;;1.20;1.10;;;;;;;;;;5000318;28;20224;-85
2022/05/27 19:08:10;;;;;;;3.37;1.40;;;;;;;;;;5012447;28;20173;-84
2022/05/27 19:11:14;;;;;;;3.17;1.07;;;;;;;;;;5023191;28;20525;-84
2022/05/27 19:14:18;;;;;;;3.10;1.13;;;;;;;;;;5000422;28;20597;-84
2022/05/27 19:17:22;;;;;;;1.77;1.30;;;;;;;;;;5011826;28;20512;-84
2022/05/27 19:23:52;;;;;;;2.93;1.40;;;;;;;;;;5022823;28;20185;-84
2022/05/27 19:26:56;;;;;;;1.57;1.20;;;;;;;;;;5011380;28;20189;-84
2022/05/27 19:30:01;;;;;;;2.17;1.40;;;;;;;;;;5012090;28;20628;-85
2022/05/27 19:33:06;;;;;;;2.50;1.00;;;;;;;;;;5000314;28;20177;-84
2022/05/27 19:36:13;;;;;;;1.30;1.20;;;;;;;;;;5022786;28;20173;-84
2022/05/27 19:39:17;;;;;;;1.67;1.10;;;;;;;;;;5011071;28;20205;-84
2022/05/27 19:42:22;;;;;;;2.10;1.13;;;;;;;;;;5010948;28;20200;-84
2022/05/27 19:45:26;;;;;;;2.17;1.30;;;;;;;;;;5011325;28;20224;-84
2022/05/27 19:48:31;;;;;;;1.67;1.30;;;;;;;;;;5011513;28;20513;-84
2022/05/27 19:51:42;;;;;;;1.27;1.17;;;;;;;;;;5011065;28;20525;-83
2022/05/27 19:54:46;;;;;;;2.33;1.27;;;;;;;;;;5000055;28;20220;-84